PWSweather.com
Personal Weather Stations
Station Observations
DEKREUPEL
Wsv De Kreupel, AndijkNL 1619 JV

Wsv De KreupelAndijkNL 1619 JV

Lat: 52.7417364, Lon: 5.1809356

Elevation: 33

Station Type: Rainwise MKiii LR

High Low Average
Temperature 56.0°F13.3°C 46.3°F7.9°C 49.9°F9.9°C
Dew Point 83.4°F28.6°C 72.4°F22.4°C 76.6°F24.8°C
Winds 26.6 mph 42.8 kmh Calm Calm 7.0 mph W11.3 kmh W
Wind Gusts 29.4 mph47.3 kmh -- 8.0 mph12.9 kmh
Humidity - - -
Pressure 30.10 in1019.3 mb 29.74 in1007.1 mb -
Precipitation 0.19 in4.8 mm - -
Hour Temp Dew Point Humidity Winds Wind Gusts Pressure Precip Precip Rate Daily Precip Total
12:04 AM 55.8°F13.2°C 83.2°F28.4°C - Calm Calm -- 29.74 in1007.1 mb 0.00 in0.0 mm 0.00 in0.0 mm 0.00 in0.0 mm
12:09 AM 55.7°F13.2°C 83.0°F28.3°C - Calm Calm -- 29.74 in1007.1 mb 0.00 in0.0 mm 0.00 in0.0 mm 0.00 in0.0 mm
12:14 AM 55.5°F13.1°C 82.8°F28.2°C - Calm Calm -- 29.75 in1007.5 mb 0.00 in0.0 mm 0.00 in0.0 mm 0.00 in0.0 mm
12:19 AM 55.5°F13.1°C 82.9°F28.3°C - Calm Calm -- 29.75 in1007.5 mb 0.00 in0.0 mm 0.00 in0.0 mm 0.00 in0.0 mm
12:24 AM 55.5°F13.1°C 82.9°F28.3°C - Calm Calm -- 29.75 in1007.5 mb 0.00 in0.0 mm 0.00 in0.0 mm 0.00 in0.0 mm
12:29 AM 55.5°F13.1°C 82.9°F28.3°C - Calm Calm -- 29.75 in1007.5 mb 0.00 in0.0 mm 0.00 in0.0 mm 0.00 in0.0 mm
12:34 AM 55.6°F13.1°C 83.0°F28.3°C - Calm Calm -- 29.74 in1007.1 mb 0.00 in0.0 mm 0.00 in0.0 mm 0.00 in0.0 mm
12:39 AM 55.7°F13.2°C 83.0°F28.3°C - Calm Calm -- 29.75 in1007.5 mb 0.00 in0.0 mm 0.00 in0.0 mm 0.01 in0.3 mm
12:44 AM 55.9°F13.3°C 83.3°F28.5°C - Calm Calm -- 29.75 in1007.5 mb 0.00 in0.0 mm 0.00 in0.0 mm 0.01 in0.3 mm
12:49 AM 56.0°F13.3°C 83.4°F28.6°C - Calm Calm -- 29.75 in1007.5 mb 0.00 in0.0 mm 0.00 in0.0 mm 0.01 in0.3 mm
12:54 AM 56.0°F13.3°C 83.3°F28.5°C - Calm Calm -- 29.75 in1007.5 mb 0.00 in0.0 mm 0.00 in0.0 mm 0.02 in0.5 mm
12:59 AM 55.8°F13.2°C 83.2°F28.4°C - Calm Calm -- 29.75 in1007.5 mb 0.00 in0.0 mm 0.00 in0.0 mm 0.02 in0.5 mm
01:04 AM 55.7°F13.2°C 83.1°F28.4°C - Calm Calm -- 29.75 in1007.5 mb 0.00 in0.0 mm 0.00 in0.0 mm 0.03 in0.8 mm
01:09 AM 55.5°F13.1°C 82.9°F28.3°C - Calm Calm -- 29.75 in1007.5 mb 0.00 in0.0 mm 0.00 in0.0 mm 0.03 in0.8 mm
01:14 AM 55.4°F13.0°C 82.8°F28.2°C - Calm Calm -- 29.75 in1007.5 mb 0.00 in0.0 mm 0.00 in0.0 mm 0.03 in0.8 mm
01:19 AM 55.5°F13.1°C 82.9°F28.3°C - Calm Calm -- 29.75 in1007.5 mb 0.00 in0.0 mm 0.00 in0.0 mm 0.03 in0.8 mm
01:24 AM 55.6°F13.1°C 83.0°F28.3°C - Calm Calm -- 29.75 in1007.5 mb 0.00 in0.0 mm 0.00 in0.0 mm 0.03 in0.8 mm
01:29 AM 55.6°F13.1°C 83.0°F28.3°C - Calm Calm -- 29.75 in1007.5 mb 0.00 in0.0 mm 0.00 in0.0 mm 0.03 in0.8 mm
01:34 AM 55.7°F13.2°C 83.1°F28.4°C - Calm Calm -- 29.75 in1007.5 mb 0.00 in0.0 mm 0.00 in0.0 mm 0.03 in0.8 mm
01:39 AM 55.7°F13.2°C 83.1°F28.4°C - Calm Calm -- 29.75 in1007.5 mb 0.00 in0.0 mm 0.00 in0.0 mm 0.03 in0.8 mm
01:44 AM 55.3°F12.9°C 82.6°F28.1°C - Calm Calm -- 29.75 in1007.5 mb 0.00 in0.0 mm 0.00 in0.0 mm 0.03 in0.8 mm
01:49 AM 55.1°F12.8°C 82.4°F28.0°C - Calm Calm -- 29.75 in1007.5 mb 0.00 in0.0 mm 0.00 in0.0 mm 0.03 in0.8 mm
01:54 AM 54.8°F12.7°C 82.1°F27.8°C - Calm Calm -- 29.75 in1007.5 mb 0.00 in0.0 mm 0.00 in0.0 mm 0.03 in0.8 mm
01:59 AM 54.7°F12.6°C 82.0°F27.8°C - Calm Calm -- 29.76 in1007.8 mb 0.00 in0.0 mm 0.00 in0.0 mm 0.03 in0.8 mm
02:04 AM 54.7°F12.6°C 82.0°F27.8°C - Calm Calm -- 29.76 in1007.8 mb 0.00 in0.0 mm 0.00 in0.0 mm 0.03 in0.8 mm
02:09 AM 54.7°F12.6°C 82.0°F27.8°C - Calm Calm -- 29.76 in1007.8 mb 0.00 in0.0 mm 0.00 in0.0 mm 0.03 in0.8 mm
02:14 AM 54.7°F12.6°C 82.0°F27.8°C - Calm Calm -- 29.76 in1007.8 mb 0.00 in0.0 mm 0.00 in0.0 mm 0.03 in0.8 mm
02:19 AM 54.5°F12.5°C 81.6°F27.6°C - Calm Calm -- 29.76 in1007.8 mb 0.00 in0.0 mm 0.00 in0.0 mm 0.03 in0.8 mm
02:24 AM 54.3°F12.4°C 81.5°F27.5°C - Calm Calm -- 29.76 in1007.8 mb 0.00 in0.0 mm 0.00 in0.0 mm 0.03 in0.8 mm
02:29 AM 54.2°F12.3°C 81.4°F27.4°C - Calm Calm -- 29.77 in1008.1 mb 0.00 in0.0 mm 0.00 in0.0 mm 0.03 in0.8 mm
02:34 AM 54.1°F12.3°C 81.3°F27.4°C - Calm Calm -- 29.77 in1008.1 mb 0.00 in0.0 mm 0.00 in0.0 mm 0.03 in0.8 mm
02:39 AM 54.1°F12.3°C 81.3°F27.4°C - Calm Calm -- 29.77 in1008.1 mb 0.00 in0.0 mm 0.00 in0.0 mm 0.03 in0.8 mm
02:44 AM 54.0°F12.2°C 81.1°F27.3°C - Calm Calm -- 29.77 in1008.1 mb 0.00 in0.0 mm 0.00 in0.0 mm 0.03 in0.8 mm
02:49 AM 54.1°F12.3°C 81.3°F27.4°C - Calm Calm -- 29.76 in1007.8 mb 0.00 in0.0 mm 0.00 in0.0 mm 0.03 in0.8 mm
02:54 AM 54.1°F12.3°C 81.3°F27.4°C - Calm Calm -- 29.77 in1008.1 mb 0.00 in0.0 mm 0.00 in0.0 mm 0.03 in0.8 mm
02:59 AM 54.0°F12.2°C 81.2°F27.3°C - Calm Calm -- 29.76 in1007.8 mb 0.00 in0.0 mm 0.00 in0.0 mm 0.03 in0.8 mm
03:04 AM 53.9°F12.2°C 81.1°F27.3°C - Calm Calm -- 29.77 in1008.1 mb 0.00 in0.0 mm 0.00 in0.0 mm 0.03 in0.8 mm
03:09 AM 53.8°F12.1°C 80.8°F27.1°C - Calm Calm -- 29.77 in1008.1 mb 0.00 in0.0 mm 0.00 in0.0 mm 0.03 in0.8 mm
03:14 AM 53.8°F12.1°C 81.0°F27.2°C - Calm Calm -- 29.76 in1007.8 mb 0.00 in0.0 mm 0.00 in0.0 mm 0.03 in0.8 mm
03:19 AM 53.7°F12.1°C 80.7°F27.1°C - Calm Calm -- 29.77 in1008.1 mb 0.00 in0.0 mm 0.00 in0.0 mm 0.03 in0.8 mm
03:24 AM 53.7°F12.1°C 80.8°F27.1°C - Calm Calm -- 29.76 in1007.8 mb 0.00 in0.0 mm 0.00 in0.0 mm 0.03 in0.8 mm
03:29 AM 53.7°F12.1°C 80.8°F27.1°C - Calm Calm -- 29.76 in1007.8 mb 0.00 in0.0 mm 0.00 in0.0 mm 0.03 in0.8 mm
03:34 AM 53.6°F12.0°C 80.7°F27.1°C - Calm Calm -- 29.76 in1007.8 mb 0.00 in0.0 mm 0.00 in0.0 mm 0.03 in0.8 mm
03:39 AM 53.6°F12.0°C 80.7°F27.1°C - Calm Calm -- 29.76 in1007.8 mb 0.00 in0.0 mm 0.00 in0.0 mm 0.03 in0.8 mm
03:44 AM 53.5°F11.9°C 80.5°F26.9°C - Calm Calm -- 29.76 in1007.8 mb 0.00 in0.0 mm 0.00 in0.0 mm 0.03 in0.8 mm
03:49 AM 53.5°F11.9°C 80.6°F27.0°C - Calm Calm -- 29.76 in1007.8 mb 0.00 in0.0 mm 0.00 in0.0 mm 0.03 in0.8 mm
03:54 AM 53.5°F11.9°C 80.6°F27.0°C - Calm Calm -- 29.76 in1007.8 mb 0.00 in0.0 mm 0.00 in0.0 mm 0.03 in0.8 mm
03:59 AM 53.3°F11.8°C 80.4°F26.9°C - Calm Calm -- 29.76 in1007.8 mb 0.00 in0.0 mm 0.00 in0.0 mm 0.03 in0.8 mm
04:04 AM 53.2°F11.8°C 80.3°F26.8°C - Calm Calm -- 29.76 in1007.8 mb 0.00 in0.0 mm 0.00 in0.0 mm 0.03 in0.8 mm
04:09 AM 52.9°F11.6°C 79.8°F26.6°C - Calm Calm -- 29.76 in1007.8 mb 0.00 in0.0 mm 0.00 in0.0 mm 0.03 in0.8 mm
04:14 AM 52.7°F11.5°C 79.7°F26.5°C - Calm Calm -- 29.76 in1007.8 mb 0.00 in0.0 mm 0.00 in0.0 mm 0.03 in0.8 mm
04:19 AM 52.7°F11.5°C 79.6°F26.4°C - Calm Calm -- 29.76 in1007.8 mb 0.00 in0.0 mm 0.00 in0.0 mm 0.03 in0.8 mm
04:24 AM 52.6°F11.4°C 79.6°F26.4°C - Calm Calm -- 29.76 in1007.8 mb 0.00 in0.0 mm 0.00 in0.0 mm 0.03 in0.8 mm
04:29 AM 52.5°F11.4°C 79.4°F26.3°C - Calm Calm -- 29.76 in1007.8 mb 0.00 in0.0 mm 0.00 in0.0 mm 0.03 in0.8 mm
04:34 AM 52.5°F11.4°C 79.4°F26.3°C - Calm Calm -- 29.77 in1008.1 mb 0.00 in0.0 mm 0.00 in0.0 mm 0.03 in0.8 mm
04:39 AM 52.3°F11.3°C 79.2°F26.2°C - Calm Calm -- 29.77 in1008.1 mb 0.00 in0.0 mm 0.00 in0.0 mm 0.03 in0.8 mm
04:44 AM 52.2°F11.2°C 79.0°F26.1°C - Calm Calm -- 29.77 in1008.1 mb 0.00 in0.0 mm 0.00 in0.0 mm 0.03 in0.8 mm
04:49 AM 52.2°F11.2°C 79.2°F26.2°C - Calm Calm -- 29.77 in1008.1 mb 0.00 in0.0 mm 0.00 in0.0 mm 0.03 in0.8 mm
04:54 AM 52.2°F11.2°C 79.2°F26.2°C - Calm Calm -- 29.77 in1008.1 mb 0.00 in0.0 mm 0.00 in0.0 mm 0.03 in0.8 mm
04:59 AM 52.2°F11.2°C 79.2°F26.2°C - Calm Calm -- 29.77 in1008.1 mb 0.00 in0.0 mm 0.00 in0.0 mm 0.03 in0.8 mm
05:04 AM 52.2°F11.2°C 79.2°F26.2°C - Calm Calm -- 29.77 in1008.1 mb 0.00 in0.0 mm 0.00 in0.0 mm 0.03 in0.8 mm
05:09 AM 52.2°F11.2°C 79.0°F26.1°C - Calm Calm -- 29.77 in1008.1 mb 0.00 in0.0 mm 0.00 in0.0 mm 0.03 in0.8 mm
05:14 AM 52.2°F11.2°C 79.2°F26.2°C - Calm Calm -- 29.77 in1008.1 mb 0.00 in0.0 mm 0.00 in0.0 mm 0.03 in0.8 mm
05:19 AM 52.2°F11.2°C 79.0°F26.1°C - Calm Calm -- 29.77 in1008.1 mb 0.00 in0.0 mm 0.00 in0.0 mm 0.03 in0.8 mm
05:24 AM 52.1°F11.2°C 79.0°F26.1°C - Calm Calm -- 29.76 in1007.8 mb 0.00 in0.0 mm 0.00 in0.0 mm 0.03 in0.8 mm
05:29 AM 52.1°F11.2°C 79.0°F26.1°C - Calm Calm -- 29.76 in1007.8 mb 0.00 in0.0 mm 0.00 in0.0 mm 0.03 in0.8 mm
05:34 AM 52.1°F11.2°C 79.0°F26.1°C - Calm Calm -- 29.76 in1007.8 mb 0.00 in0.0 mm 0.00 in0.0 mm 0.03 in0.8 mm
05:39 AM 52.1°F11.2°C 78.9°F26.1°C - Calm Calm -- 29.77 in1008.1 mb 0.00 in0.0 mm 0.00 in0.0 mm 0.03 in0.8 mm
05:44 AM 52.0°F11.1°C 78.9°F26.1°C - Calm Calm -- 29.77 in1008.1 mb 0.00 in0.0 mm 0.00 in0.0 mm 0.03 in0.8 mm
05:49 AM 51.8°F11.0°C 78.6°F25.9°C - Calm Calm -- 29.77 in1008.1 mb 0.00 in0.0 mm 0.00 in0.0 mm 0.03 in0.8 mm
05:54 AM 51.8°F11.0°C 78.6°F25.9°C - Calm Calm -- 29.78 in1008.5 mb 0.00 in0.0 mm 0.00 in0.0 mm 0.03 in0.8 mm
05:59 AM 51.7°F10.9°C 78.6°F25.9°C - Calm Calm -- 29.78 in1008.5 mb 0.00 in0.0 mm 0.00 in0.0 mm 0.03 in0.8 mm
06:04 AM 51.7°F10.9°C 78.6°F25.9°C - Calm Calm -- 29.78 in1008.5 mb 0.00 in0.0 mm 0.00 in0.0 mm 0.03 in0.8 mm
06:09 AM 51.7°F10.9°C 78.5°F25.8°C - Calm Calm -- 29.77 in1008.1 mb 0.00 in0.0 mm 0.00 in0.0 mm 0.03 in0.8 mm
06:14 AM 51.6°F10.9°C 78.4°F25.8°C - Calm Calm -- 29.77 in1008.1 mb 0.00 in0.0 mm 0.00 in0.0 mm 0.03 in0.8 mm
06:19 AM 51.5°F10.8°C 78.4°F25.8°C - Calm Calm -- 29.78 in1008.5 mb 0.00 in0.0 mm 0.00 in0.0 mm 0.03 in0.8 mm
06:24 AM 51.3°F10.7°C 78.0°F25.6°C - Calm Calm -- 29.78 in1008.5 mb 0.00 in0.0 mm 0.00 in0.0 mm 0.03 in0.8 mm
06:29 AM 51.3°F10.7°C 78.2°F25.7°C - Calm Calm -- 29.78 in1008.5 mb 0.00 in0.0 mm 0.00 in0.0 mm 0.03 in0.8 mm
06:34 AM 51.3°F10.7°C 78.0°F25.6°C - Calm Calm -- 29.78 in1008.5 mb 0.00 in0.0 mm 0.00 in0.0 mm 0.03 in0.8 mm
06:39 AM 51.2°F10.7°C 78.0°F25.6°C - Calm Calm -- 29.78 in1008.5 mb 0.00 in0.0 mm 0.00 in0.0 mm 0.03 in0.8 mm
06:44 AM 51.2°F10.7°C 77.9°F25.5°C - Calm Calm -- 29.79 in1008.8 mb 0.00 in0.0 mm 0.00 in0.0 mm 0.03 in0.8 mm
06:49 AM 51.2°F10.7°C 78.0°F25.6°C - Calm Calm -- 29.79 in1008.8 mb 0.00 in0.0 mm 0.00 in0.0 mm 0.03 in0.8 mm
06:54 AM 51.0°F10.6°C 77.7°F25.4°C - Calm Calm -- 29.79 in1008.8 mb 0.00 in0.0 mm 0.00 in0.0 mm 0.03 in0.8 mm
06:59 AM 50.8°F10.4°C 77.6°F25.3°C - Calm Calm -- 29.79 in1008.8 mb 0.00 in0.0 mm 0.00 in0.0 mm 0.03 in0.8 mm
07:04 AM 50.0°F10.0°C 76.7°F24.8°C - Calm Calm -- 29.79 in1008.8 mb 0.00 in0.0 mm 0.00 in0.0 mm 0.05 in1.3 mm
07:09 AM 50.2°F10.1°C 76.8°F24.9°C - 7.8 mph WNW12.6 kmh WNW 15.4 mph24.8 kmh 29.79 in1008.8 mb 0.00 in0.0 mm 0.00 in0.0 mm 0.05 in1.3 mm
07:14 AM 52.6°F11.4°C 79.6°F26.4°C - 22.9 mph WNW36.9 kmh WNW 26.6 mph42.8 kmh 29.80 in1009.1 mb 0.00 in0.0 mm 0.00 in0.0 mm 0.05 in1.3 mm
07:19 AM 52.6°F11.4°C 79.6°F26.4°C - 10.2 mph W16.4 kmh W 12.3 mph19.8 kmh 29.80 in1009.1 mb 0.00 in0.0 mm 0.00 in0.0 mm 0.05 in1.3 mm
07:24 AM 50.1°F10.1°C 76.8°F24.9°C - 12.7 mph W20.4 kmh W 17.3 mph27.8 kmh 29.80 in1009.1 mb 0.00 in0.0 mm 0.00 in0.0 mm 0.05 in1.3 mm
07:29 AM 49.2°F9.6°C 75.8°F24.3°C - 19.0 mph NW30.6 kmh NW 22.5 mph36.2 kmh 29.79 in1008.8 mb 0.00 in0.0 mm 0.00 in0.0 mm 0.06 in1.5 mm
07:34 AM 50.0°F10.0°C 76.6°F24.8°C - 16.9 mph NW27.2 kmh NW 19.0 mph30.6 kmh 29.79 in1008.8 mb 0.00 in0.0 mm 0.00 in0.0 mm 0.06 in1.5 mm
07:39 AM 50.5°F10.3°C 77.1°F25.1°C - 19.1 mph WNW30.7 kmh WNW 21.4 mph34.4 kmh 29.79 in1008.8 mb 0.00 in0.0 mm 0.00 in0.0 mm 0.06 in1.5 mm
07:44 AM 50.2°F10.1°C 76.9°F24.9°C - 17.9 mph NW28.8 kmh NW 22.5 mph36.2 kmh 29.80 in1009.1 mb 0.00 in0.0 mm 0.00 in0.0 mm 0.06 in1.5 mm
07:49 AM 49.8°F9.9°C 76.3°F24.6°C - 21.9 mph NW35.2 kmh NW 24.6 mph39.6 kmh 29.79 in1008.8 mb 0.00 in0.0 mm 0.00 in0.0 mm 0.06 in1.5 mm
07:54 AM 50.0°F10.0°C 76.7°F24.8°C - 11.4 mph NW18.3 kmh NW 13.1 mph21.1 kmh 29.80 in1009.1 mb 0.00 in0.0 mm 0.00 in0.0 mm 0.06 in1.5 mm
07:59 AM 50.1°F10.1°C 76.8°F24.9°C - 10.5 mph WNW16.9 kmh WNW 12.5 mph20.1 kmh 29.81 in1009.5 mb 0.00 in0.0 mm 0.00 in0.0 mm 0.06 in1.5 mm
08:04 AM 50.0°F10.0°C 76.7°F24.8°C - 9.3 mph W15.0 kmh W 10.5 mph16.9 kmh 29.81 in1009.5 mb 0.00 in0.0 mm 0.00 in0.0 mm 0.06 in1.5 mm
08:09 AM 49.3°F9.6°C 75.9°F24.4°C - 7.7 mph W12.4 kmh W 8.9 mph14.3 kmh 29.80 in1009.1 mb 0.00 in0.0 mm 0.00 in0.0 mm 0.06 in1.5 mm
08:14 AM 48.8°F9.3°C 75.3°F24.1°C - 6.8 mph W10.9 kmh W 7.9 mph12.7 kmh 29.81 in1009.5 mb 0.00 in0.0 mm 0.00 in0.0 mm 0.06 in1.5 mm
08:19 AM 49.0°F9.4°C 75.6°F24.2°C - 6.3 mph W10.1 kmh W 7.8 mph12.6 kmh 29.81 in1009.5 mb 0.00 in0.0 mm 0.00 in0.0 mm 0.06 in1.5 mm
08:24 AM 49.2°F9.6°C 75.8°F24.3°C - 7.0 mph W11.3 kmh W 8.7 mph14.0 kmh 29.81 in1009.5 mb 0.00 in0.0 mm 0.00 in0.0 mm 0.06 in1.5 mm
08:29 AM 49.1°F9.5°C 75.7°F24.3°C - 5.8 mph W9.3 kmh W 7.2 mph11.6 kmh 29.82 in1009.8 mb 0.00 in0.0 mm 0.00 in0.0 mm 0.06 in1.5 mm
08:34 AM 49.1°F9.5°C 75.6°F24.2°C - 7.0 mph W11.3 kmh W 8.9 mph14.3 kmh 29.82 in1009.8 mb 0.00 in0.0 mm 0.00 in0.0 mm 0.06 in1.5 mm
08:39 AM 49.2°F9.6°C 75.8°F24.3°C - 6.6 mph W10.6 kmh W 8.0 mph12.9 kmh 29.82 in1009.8 mb 0.00 in0.0 mm 0.00 in0.0 mm 0.06 in1.5 mm
08:44 AM 49.5°F9.7°C 76.1°F24.5°C - 7.0 mph W11.3 kmh W 8.4 mph13.5 kmh 29.82 in1009.8 mb 0.00 in0.0 mm 0.00 in0.0 mm 0.06 in1.5 mm
08:49 AM 49.3°F9.6°C 75.9°F24.4°C - 6.7 mph W10.8 kmh W 8.2 mph13.2 kmh 29.83 in1010.2 mb 0.00 in0.0 mm 0.00 in0.0 mm 0.06 in1.5 mm
08:54 AM 49.5°F9.7°C 76.1°F24.5°C - 7.2 mph W11.6 kmh W 8.2 mph13.2 kmh 29.83 in1010.2 mb 0.00 in0.0 mm 0.00 in0.0 mm 0.06 in1.5 mm
08:59 AM 49.5°F9.7°C 76.1°F24.5°C - 11.0 mph W17.7 kmh W 13.5 mph21.7 kmh 29.83 in1010.2 mb 0.00 in0.0 mm 0.00 in0.0 mm 0.06 in1.5 mm
09:04 AM 49.3°F9.6°C 75.9°F24.4°C - 12.6 mph W20.3 kmh W 16.5 mph26.6 kmh 29.83 in1010.2 mb 0.00 in0.0 mm 0.00 in0.0 mm 0.06 in1.5 mm
09:09 AM 51.5°F10.8°C 78.3°F25.7°C - 22.2 mph WNW35.7 kmh WNW 25.8 mph41.5 kmh 29.83 in1010.2 mb 0.00 in0.0 mm 0.00 in0.0 mm 0.06 in1.5 mm
09:14 AM 52.7°F11.5°C 79.7°F26.5°C - 18.9 mph WNW30.4 kmh WNW 23.1 mph37.2 kmh 29.84 in1010.5 mb 0.00 in0.0 mm 0.00 in0.0 mm 0.12 in3.0 mm
09:19 AM 50.8°F10.4°C 77.6°F25.3°C - 20.5 mph WNW33.0 kmh WNW 27.2 mph43.8 kmh 29.83 in1010.2 mb 0.00 in0.0 mm 0.00 in0.0 mm 0.13 in3.3 mm
09:24 AM 49.8°F9.9°C 76.5°F24.7°C - 10.3 mph W16.6 kmh W 11.5 mph18.5 kmh 29.83 in1010.2 mb 0.00 in0.0 mm 0.00 in0.0 mm 0.13 in3.3 mm
09:29 AM 49.5°F9.7°C 76.0°F24.4°C - 8.5 mph W13.7 kmh W 9.9 mph15.9 kmh 29.84 in1010.5 mb 0.00 in0.0 mm 0.00 in0.0 mm 0.13 in3.3 mm
09:34 AM 49.5°F9.7°C 76.1°F24.5°C - 8.8 mph W14.2 kmh W 10.5 mph16.9 kmh 29.84 in1010.5 mb 0.00 in0.0 mm 0.00 in0.0 mm 0.13 in3.3 mm
09:39 AM 49.6°F9.8°C 76.2°F24.6°C - 10.6 mph WNW17.1 kmh WNW 13.0 mph20.9 kmh 29.84 in1010.5 mb 0.00 in0.0 mm 0.00 in0.0 mm 0.13 in3.3 mm
09:44 AM 50.0°F10.0°C 76.7°F24.8°C - 14.5 mph WNW23.3 kmh WNW 17.2 mph27.7 kmh 29.84 in1010.5 mb 0.00 in0.0 mm 0.00 in0.0 mm 0.13 in3.3 mm
09:49 AM 50.2°F10.1°C 76.8°F24.9°C - 12.8 mph WNW20.6 kmh WNW 14.4 mph23.2 kmh 29.85 in1010.8 mb 0.00 in0.0 mm 0.00 in0.0 mm 0.13 in3.3 mm
09:54 AM 50.3°F10.2°C 77.0°F25.0°C - 14.0 mph WNW22.5 kmh WNW 16.0 mph25.7 kmh 29.85 in1010.8 mb 0.00 in0.0 mm 0.00 in0.0 mm 0.13 in3.3 mm
09:59 AM 50.5°F10.3°C 77.3°F25.2°C - 13.0 mph WNW20.9 kmh WNW 15.0 mph24.1 kmh 29.85 in1010.8 mb 0.00 in0.0 mm 0.00 in0.0 mm 0.13 in3.3 mm
10:04 AM 50.3°F10.2°C 76.9°F24.9°C - 12.8 mph NW20.6 kmh NW 14.3 mph23.0 kmh 29.85 in1010.8 mb 0.00 in0.0 mm 0.00 in0.0 mm 0.13 in3.3 mm
10:09 AM 50.5°F10.3°C 77.3°F25.2°C - 10.4 mph NW16.7 kmh NW 12.2 mph19.6 kmh 29.86 in1011.2 mb 0.00 in0.0 mm 0.00 in0.0 mm 0.13 in3.3 mm
10:14 AM 50.7°F10.4°C 77.4°F25.2°C - 13.7 mph WNW22.0 kmh WNW 15.7 mph25.3 kmh 29.86 in1011.2 mb 0.00 in0.0 mm 0.00 in0.0 mm 0.13 in3.3 mm
10:19 AM 50.7°F10.4°C 77.5°F25.3°C - 21.2 mph NW34.1 kmh NW 23.5 mph37.8 kmh 29.85 in1010.8 mb 0.00 in0.0 mm 0.00 in0.0 mm 0.13 in3.3 mm
10:24 AM 50.2°F10.1°C 76.8°F24.9°C - 20.2 mph NW32.5 kmh NW 23.6 mph38.0 kmh 29.86 in1011.2 mb 0.00 in0.0 mm 0.00 in0.0 mm 0.13 in3.3 mm
10:29 AM 49.9°F9.9°C 76.5°F24.7°C - 20.0 mph NW32.2 kmh NW 22.5 mph36.2 kmh 29.86 in1011.2 mb 0.00 in0.0 mm 0.00 in0.0 mm 0.13 in3.3 mm
10:34 AM 49.7°F9.8°C 76.4°F24.7°C - 19.9 mph NW32.0 kmh NW 22.4 mph36.0 kmh 29.86 in1011.2 mb 0.00 in0.0 mm 0.00 in0.0 mm 0.13 in3.3 mm
10:39 AM 49.6°F9.8°C 76.1°F24.5°C - 20.2 mph NW32.5 kmh NW 23.6 mph38.0 kmh 29.86 in1011.2 mb 0.00 in0.0 mm 0.00 in0.0 mm 0.13 in3.3 mm
10:44 AM 49.3°F9.6°C 75.9°F24.4°C - 21.8 mph NW35.1 kmh NW 24.8 mph39.9 kmh 29.86 in1011.2 mb 0.00 in0.0 mm 0.00 in0.0 mm 0.13 in3.3 mm
10:49 AM 49.2°F9.6°C 75.8°F24.3°C - 19.8 mph NW31.9 kmh NW 21.9 mph35.2 kmh 29.86 in1011.2 mb 0.00 in0.0 mm 0.00 in0.0 mm 0.13 in3.3 mm
10:54 AM 49.2°F9.6°C 75.8°F24.3°C - 19.6 mph NW31.5 kmh NW 23.0 mph37.0 kmh 29.87 in1011.5 mb 0.00 in0.0 mm 0.00 in0.0 mm 0.13 in3.3 mm
10:59 AM 49.1°F9.5°C 75.7°F24.3°C - 22.6 mph NW36.4 kmh NW 26.8 mph43.1 kmh 29.86 in1011.2 mb 0.00 in0.0 mm 0.00 in0.0 mm 0.13 in3.3 mm
11:04 AM 48.7°F9.3°C 75.2°F24.0°C - 26.6 mph NW42.8 kmh NW 29.4 mph47.3 kmh 29.86 in1011.2 mb 0.00 in0.0 mm 0.00 in0.0 mm 0.13 in3.3 mm
11:09 AM 48.4°F9.1°C 74.8°F23.8°C - 21.8 mph NNW35.1 kmh NNW 24.7 mph39.8 kmh 29.86 in1011.2 mb 0.00 in0.0 mm 0.00 in0.0 mm 0.13 in3.3 mm
11:14 AM 48.3°F9.1°C 74.7°F23.7°C - 18.8 mph NNW30.3 kmh NNW 21.0 mph33.8 kmh 29.86 in1011.2 mb 0.00 in0.0 mm 0.00 in0.0 mm 0.13 in3.3 mm
11:19 AM 48.2°F9.0°C 74.7°F23.7°C - 16.8 mph NNW27.0 kmh NNW 18.3 mph29.5 kmh 29.87 in1011.5 mb 0.00 in0.0 mm 0.00 in0.0 mm 0.13 in3.3 mm
11:24 AM 48.5°F9.2°C 74.9°F23.8°C - 14.9 mph NW24.0 kmh NW 16.7 mph26.9 kmh 29.88 in1011.9 mb 0.00 in0.0 mm 0.00 in0.0 mm 0.13 in3.3 mm
11:29 AM 48.7°F9.3°C 75.2°F24.0°C - 16.8 mph NW27.0 kmh NW 19.0 mph30.6 kmh 29.88 in1011.9 mb 0.00 in0.0 mm 0.00 in0.0 mm 0.13 in3.3 mm
11:34 AM 49.1°F9.5°C 75.7°F24.3°C - 17.4 mph WNW28.0 kmh WNW 19.2 mph30.9 kmh 29.89 in1012.2 mb 0.00 in0.0 mm 0.00 in0.0 mm 0.14 in3.6 mm
11:39 AM 49.1°F9.5°C 75.6°F24.2°C - 17.2 mph NW27.7 kmh NW 21.0 mph33.8 kmh 29.89 in1012.2 mb 0.00 in0.0 mm 0.00 in0.0 mm 0.14 in3.6 mm
11:44 AM 48.5°F9.2°C 74.9°F23.8°C - 16.4 mph NNW26.4 kmh NNW 18.2 mph29.3 kmh 29.89 in1012.2 mb 0.00 in0.0 mm 0.00 in0.0 mm 0.14 in3.6 mm
11:49 AM 48.2°F9.0°C 74.7°F23.7°C - 11.9 mph NW19.2 kmh NW 14.3 mph23.0 kmh 29.89 in1012.2 mb 0.00 in0.0 mm 0.00 in0.0 mm 0.14 in3.6 mm
11:54 AM 48.3°F9.1°C 74.8°F23.8°C - 9.9 mph NNW15.9 kmh NNW 11.1 mph17.9 kmh 29.89 in1012.2 mb 0.00 in0.0 mm 0.00 in0.0 mm 0.14 in3.6 mm
11:59 AM 48.3°F9.1°C 74.7°F23.7°C - 5.3 mph NNW8.5 kmh NNW 6.4 mph10.3 kmh 29.89 in1012.2 mb 0.00 in0.0 mm 0.00 in0.0 mm 0.14 in3.6 mm
12:04 PM 48.4°F9.1°C 74.9°F23.8°C - 3.1 mph NNW5.0 kmh NNW 3.8 mph6.1 kmh 29.89 in1012.2 mb 0.00 in0.0 mm 0.00 in0.0 mm 0.14 in3.6 mm
12:09 PM 48.4°F9.1°C 74.9°F23.8°C - 1.6 mph NW2.6 kmh NW 2.4 mph3.9 kmh 29.89 in1012.2 mb 0.00 in0.0 mm 0.00 in0.0 mm 0.14 in3.6 mm
12:14 PM 48.2°F9.0°C 74.7°F23.7°C - 0.5 mph NW0.8 kmh NW 1.1 mph1.8 kmh 29.89 in1012.2 mb 0.00 in0.0 mm 0.00 in0.0 mm 0.14 in3.6 mm
12:19 PM 48.3°F9.1°C 74.7°F23.7°C - 3.7 mph NW6.0 kmh NW 4.6 mph7.4 kmh 29.89 in1012.2 mb 0.00 in0.0 mm 0.00 in0.0 mm 0.14 in3.6 mm
12:24 PM 48.3°F9.1°C 74.7°F23.7°C - 8.1 mph WNW13.0 kmh WNW 9.3 mph15.0 kmh 29.89 in1012.2 mb 0.00 in0.0 mm 0.00 in0.0 mm 0.14 in3.6 mm
12:29 PM 48.7°F9.3°C 75.2°F24.0°C - 10.5 mph W16.9 kmh W 11.6 mph18.7 kmh 29.90 in1012.5 mb 0.00 in0.0 mm 0.00 in0.0 mm 0.14 in3.6 mm
12:34 PM 48.8°F9.3°C 75.3°F24.1°C - 7.1 mph W11.4 kmh W 8.8 mph14.2 kmh 29.90 in1012.5 mb 0.00 in0.0 mm 0.00 in0.0 mm 0.14 in3.6 mm
12:39 PM 48.8°F9.3°C 75.3°F24.1°C - 8.7 mph W14.0 kmh W 10.0 mph16.1 kmh 29.90 in1012.5 mb 0.00 in0.0 mm 0.00 in0.0 mm 0.14 in3.6 mm
12:44 PM 48.7°F9.3°C 75.2°F24.0°C - 7.2 mph W11.6 kmh W 8.3 mph13.4 kmh 29.90 in1012.5 mb 0.00 in0.0 mm 0.00 in0.0 mm 0.14 in3.6 mm
12:49 PM 48.7°F9.3°C 75.2°F24.0°C - 7.2 mph W11.6 kmh W 8.6 mph13.8 kmh 29.90 in1012.5 mb 0.00 in0.0 mm 0.00 in0.0 mm 0.14 in3.6 mm
12:54 PM 48.7°F9.3°C 75.1°F23.9°C - 7.6 mph W12.2 kmh W 9.0 mph14.5 kmh 29.90 in1012.5 mb 0.00 in0.0 mm 0.00 in0.0 mm 0.14 in3.6 mm
12:59 PM 48.9°F9.4°C 75.5°F24.2°C - 9.1 mph W14.6 kmh W 10.4 mph16.7 kmh 29.91 in1012.9 mb 0.00 in0.0 mm 0.00 in0.0 mm 0.14 in3.6 mm
01:04 PM 49.0°F9.4°C 75.6°F24.2°C - 11.1 mph W17.9 kmh W 14.2 mph22.9 kmh 29.90 in1012.5 mb 0.00 in0.0 mm 0.00 in0.0 mm 0.14 in3.6 mm
01:09 PM 49.0°F9.4°C 75.4°F24.1°C - 15.6 mph W25.1 kmh W 18.8 mph30.3 kmh 29.91 in1012.9 mb 0.00 in0.0 mm 0.00 in0.0 mm 0.14 in3.6 mm
01:14 PM 48.6°F9.2°C 75.1°F23.9°C - 14.0 mph WSW22.5 kmh WSW 17.3 mph27.8 kmh 29.90 in1012.5 mb 0.00 in0.0 mm 0.00 in0.0 mm 0.14 in3.6 mm
01:19 PM 48.2°F9.0°C 74.7°F23.7°C - 11.6 mph WSW18.7 kmh WSW 14.6 mph23.5 kmh 29.90 in1012.5 mb 0.00 in0.0 mm 0.00 in0.0 mm 0.15 in3.8 mm
01:24 PM 48.1°F8.9°C 74.6°F23.7°C - 7.8 mph WSW12.6 kmh WSW 9.5 mph15.3 kmh 29.90 in1012.5 mb 0.00 in0.0 mm 0.00 in0.0 mm 0.15 in3.8 mm
01:29 PM 48.1°F8.9°C 74.6°F23.7°C - 7.8 mph WSW12.6 kmh WSW 9.8 mph15.8 kmh 29.91 in1012.9 mb 0.00 in0.0 mm 0.00 in0.0 mm 0.15 in3.8 mm
01:34 PM 48.1°F8.9°C 74.6°F23.7°C - 8.4 mph WSW13.5 kmh WSW 11.1 mph17.9 kmh 29.91 in1012.9 mb 0.00 in0.0 mm 0.00 in0.0 mm 0.15 in3.8 mm
01:39 PM 48.0°F8.9°C 74.4°F23.6°C - 9.6 mph WSW15.4 kmh WSW 13.0 mph20.9 kmh 29.91 in1012.9 mb 0.00 in0.0 mm 0.00 in0.0 mm 0.15 in3.8 mm
01:44 PM 48.0°F8.9°C 74.4°F23.6°C - 10.9 mph WSW17.5 kmh WSW 13.0 mph20.9 kmh 29.91 in1012.9 mb 0.00 in0.0 mm 0.00 in0.0 mm 0.15 in3.8 mm
01:49 PM 48.1°F8.9°C 74.4°F23.6°C - 12.4 mph W20.0 kmh W 15.4 mph24.8 kmh 29.92 in1013.2 mb 0.00 in0.0 mm 0.00 in0.0 mm 0.15 in3.8 mm
01:54 PM 48.2°F9.0°C 74.7°F23.7°C - 20.2 mph W32.5 kmh W 24.2 mph38.9 kmh 29.92 in1013.2 mb 0.00 in0.0 mm 0.00 in0.0 mm 0.15 in3.8 mm
01:59 PM 47.6°F8.7°C 74.0°F23.3°C - 19.3 mph W31.1 kmh W 22.8 mph36.7 kmh 29.92 in1013.2 mb 0.00 in0.0 mm 0.00 in0.0 mm 0.15 in3.8 mm
02:04 PM 47.3°F8.5°C 73.7°F23.2°C - 20.9 mph W33.6 kmh W 24.9 mph40.1 kmh 29.91 in1012.9 mb 0.00 in0.0 mm 0.00 in0.0 mm 0.15 in3.8 mm
02:09 PM 48.2°F9.0°C 74.7°F23.7°C - 14.1 mph N22.7 kmh N 18.5 mph29.8 kmh 29.93 in1013.5 mb 0.00 in0.0 mm 0.00 in0.0 mm 0.15 in3.8 mm
02:14 PM 48.0°F8.9°C 74.4°F23.6°C - 4.7 mph SW7.6 kmh SW 6.8 mph10.9 kmh 29.93 in1013.5 mb 0.00 in0.0 mm 0.00 in0.0 mm 0.16 in4.1 mm
02:19 PM 47.1°F8.4°C 73.3°F22.9°C - 4.5 mph S7.2 kmh S 5.8 mph9.3 kmh 29.93 in1013.5 mb 0.00 in0.0 mm 0.00 in0.0 mm 0.17 in4.3 mm
02:24 PM 46.8°F8.2°C 73.1°F22.8°C - 4.3 mph SW6.9 kmh SW 5.4 mph8.7 kmh 29.92 in1013.2 mb 0.00 in0.0 mm 0.00 in0.0 mm 0.17 in4.3 mm
02:29 PM 46.7°F8.2°C 73.0°F22.8°C - 2.8 mph SSW4.5 kmh SSW 4.1 mph6.6 kmh 29.92 in1013.2 mb 0.00 in0.0 mm 0.00 in0.0 mm 0.17 in4.3 mm
02:34 PM 46.9°F8.3°C 73.2°F22.9°C - 4.5 mph SSW7.2 kmh SSW 5.3 mph8.5 kmh 29.92 in1013.2 mb 0.00 in0.0 mm 0.00 in0.0 mm 0.17 in4.3 mm
02:39 PM 47.1°F8.4°C 73.4°F23.0°C - 4.8 mph SSW7.7 kmh SSW 6.1 mph9.8 kmh 29.93 in1013.5 mb 0.00 in0.0 mm 0.00 in0.0 mm 0.17 in4.3 mm
02:44 PM 47.5°F8.6°C 73.9°F23.3°C - 5.0 mph WSW8.0 kmh WSW 6.9 mph11.1 kmh 29.92 in1013.2 mb 0.00 in0.0 mm 0.00 in0.0 mm 0.17 in4.3 mm
02:49 PM 47.8°F8.8°C 74.2°F23.4°C - 8.1 mph SW13.0 kmh SW 10.6 mph17.1 kmh 29.93 in1013.5 mb 0.00 in0.0 mm 0.00 in0.0 mm 0.17 in4.3 mm
02:54 PM 47.8°F8.8°C 74.2°F23.4°C - 7.9 mph SW12.7 kmh SW 10.0 mph16.1 kmh 29.93 in1013.5 mb 0.00 in0.0 mm 0.00 in0.0 mm 0.17 in4.3 mm
02:59 PM 47.8°F8.8°C 74.2°F23.4°C - 7.4 mph SW11.9 kmh SW 9.9 mph15.9 kmh 29.93 in1013.5 mb 0.00 in0.0 mm 0.00 in0.0 mm 0.17 in4.3 mm
03:04 PM 48.0°F8.9°C 74.4°F23.6°C - 7.1 mph WSW11.4 kmh WSW 9.8 mph15.8 kmh 29.93 in1013.5 mb 0.00 in0.0 mm 0.00 in0.0 mm 0.17 in4.3 mm
03:09 PM 48.1°F8.9°C 74.6°F23.7°C - 7.1 mph SW11.4 kmh SW 8.9 mph14.3 kmh 29.93 in1013.5 mb 0.00 in0.0 mm 0.00 in0.0 mm 0.17 in4.3 mm
03:14 PM 48.0°F8.9°C 74.4°F23.6°C - 6.9 mph SW11.1 kmh SW 9.6 mph15.4 kmh 29.94 in1013.9 mb 0.00 in0.0 mm 0.00 in0.0 mm 0.17 in4.3 mm
03:19 PM 47.9°F8.8°C 74.3°F23.5°C - 6.5 mph SW10.5 kmh SW 7.8 mph12.6 kmh 29.94 in1013.9 mb 0.00 in0.0 mm 0.00 in0.0 mm 0.17 in4.3 mm
03:24 PM 47.8°F8.8°C 74.1°F23.4°C - 7.3 mph SW11.7 kmh SW 8.6 mph13.8 kmh 29.94 in1013.9 mb 0.00 in0.0 mm 0.00 in0.0 mm 0.17 in4.3 mm
03:29 PM 47.7°F8.7°C 74.1°F23.4°C - 7.0 mph SW11.3 kmh SW 8.2 mph13.2 kmh 29.94 in1013.9 mb 0.00 in0.0 mm 0.00 in0.0 mm 0.17 in4.3 mm
03:34 PM 47.7°F8.7°C 74.1°F23.4°C - 6.8 mph SW10.9 kmh SW 8.4 mph13.5 kmh 29.94 in1013.9 mb 0.00 in0.0 mm 0.00 in0.0 mm 0.17 in4.3 mm
03:39 PM 47.7°F8.7°C 74.1°F23.4°C - 6.5 mph SSW10.5 kmh SSW 7.7 mph12.4 kmh 29.95 in1014.2 mb 0.00 in0.0 mm 0.00 in0.0 mm 0.17 in4.3 mm
03:44 PM 47.7°F8.7°C 74.1°F23.4°C - 4.4 mph SW7.1 kmh SW 6.3 mph10.1 kmh 29.95 in1014.2 mb 0.00 in0.0 mm 0.00 in0.0 mm 0.17 in4.3 mm
03:49 PM 47.7°F8.7°C 74.1°F23.4°C - 6.2 mph WSW10.0 kmh WSW 7.8 mph12.6 kmh 29.95 in1014.2 mb 0.00 in0.0 mm 0.00 in0.0 mm 0.17 in4.3 mm
03:54 PM 48.0°F8.9°C 74.4°F23.6°C - 5.0 mph WSW8.0 kmh WSW 6.5 mph10.5 kmh 29.95 in1014.2 mb 0.00 in0.0 mm 0.00 in0.0 mm 0.17 in4.3 mm
03:59 PM 48.2°F9.0°C 74.7°F23.7°C - 4.9 mph WSW7.9 kmh WSW 6.7 mph10.8 kmh 29.95 in1014.2 mb 0.00 in0.0 mm 0.00 in0.0 mm 0.17 in4.3 mm
04:04 PM 48.4°F9.1°C 74.9°F23.8°C - 4.7 mph WSW7.6 kmh WSW 5.7 mph9.2 kmh 29.95 in1014.2 mb 0.00 in0.0 mm 0.00 in0.0 mm 0.17 in4.3 mm
04:09 PM 48.6°F9.2°C 75.1°F23.9°C - 7.0 mph WSW11.3 kmh WSW 8.3 mph13.4 kmh 29.96 in1014.6 mb 0.00 in0.0 mm 0.00 in0.0 mm 0.17 in4.3 mm
04:14 PM 48.6°F9.2°C 75.1°F23.9°C - 5.7 mph WSW9.2 kmh WSW 7.9 mph12.7 kmh 29.95 in1014.2 mb 0.00 in0.0 mm 0.00 in0.0 mm 0.18 in4.6 mm
04:19 PM 48.6°F9.2°C 75.1°F23.9°C - 6.6 mph WSW10.6 kmh WSW 7.9 mph12.7 kmh 29.95 in1014.2 mb 0.00 in0.0 mm 0.00 in0.0 mm 0.18 in4.6 mm
04:24 PM 48.7°F9.3°C 75.1°F23.9°C - 4.4 mph SW7.1 kmh SW 5.1 mph8.2 kmh 29.96 in1014.6 mb 0.00 in0.0 mm 0.00 in0.0 mm 0.18 in4.6 mm
04:29 PM 48.6°F9.2°C 75.1°F23.9°C - 4.6 mph SW7.4 kmh SW 5.3 mph8.5 kmh 29.95 in1014.2 mb 0.00 in0.0 mm 0.00 in0.0 mm 0.18 in4.6 mm
04:34 PM 48.5°F9.2°C 75.0°F23.9°C - 4.8 mph SW7.7 kmh SW 5.7 mph9.2 kmh 29.95 in1014.2 mb 0.00 in0.0 mm 0.00 in0.0 mm 0.18 in4.6 mm
04:39 PM 48.3°F9.1°C 74.8°F23.8°C - 5.3 mph WSW8.5 kmh WSW 6.9 mph11.1 kmh 29.96 in1014.6 mb 0.00 in0.0 mm 0.00 in0.0 mm 0.18 in4.6 mm
04:44 PM 48.3°F9.1°C 74.8°F23.8°C - 4.9 mph SW7.9 kmh SW 6.5 mph10.5 kmh 29.96 in1014.6 mb 0.00 in0.0 mm 0.00 in0.0 mm 0.18 in4.6 mm
04:49 PM 48.2°F9.0°C 74.7°F23.7°C - 6.3 mph WSW10.1 kmh WSW 7.9 mph12.7 kmh 29.96 in1014.6 mb 0.00 in0.0 mm 0.00 in0.0 mm 0.18 in4.6 mm
04:54 PM 48.2°F9.0°C 74.7°F23.7°C - 6.3 mph W10.1 kmh W 7.4 mph11.9 kmh 29.97 in1014.9 mb 0.00 in0.0 mm 0.00 in0.0 mm 0.18 in4.6 mm
04:59 PM 48.2°F9.0°C 74.7°F23.7°C - 8.0 mph WSW12.9 kmh WSW 9.6 mph15.4 kmh 29.97 in1014.9 mb 0.00 in0.0 mm 0.00 in0.0 mm 0.18 in4.6 mm
05:04 PM 48.1°F8.9°C 74.6°F23.7°C - 9.0 mph WSW14.5 kmh WSW 10.8 mph17.4 kmh 29.97 in1014.9 mb 0.00 in0.0 mm 0.00 in0.0 mm 0.18 in4.6 mm
05:09 PM 47.7°F8.7°C 74.1°F23.4°C - 7.4 mph WSW11.9 kmh WSW 9.3 mph15.0 kmh 29.97 in1014.9 mb 0.00 in0.0 mm 0.00 in0.0 mm 0.18 in4.6 mm
05:14 PM 47.4°F8.6°C 73.8°F23.2°C - 7.1 mph WSW11.4 kmh WSW 8.7 mph14.0 kmh 29.97 in1014.9 mb 0.00 in0.0 mm 0.00 in0.0 mm 0.18 in4.6 mm
05:19 PM 47.0°F8.3°C 73.3°F22.9°C - 6.4 mph SW10.3 kmh SW 8.6 mph13.8 kmh 29.97 in1014.9 mb 0.00 in0.0 mm 0.00 in0.0 mm 0.18 in4.6 mm
05:24 PM 46.8°F8.2°C 73.1°F22.8°C - 7.0 mph SW11.3 kmh SW 8.7 mph14.0 kmh 29.98 in1015.2 mb 0.00 in0.0 mm 0.00 in0.0 mm 0.18 in4.6 mm
05:29 PM 46.8°F8.2°C 73.1°F22.8°C - 7.1 mph SW11.4 kmh SW 8.5 mph13.7 kmh 29.98 in1015.2 mb 0.00 in0.0 mm 0.00 in0.0 mm 0.18 in4.6 mm
05:34 PM 46.7°F8.2°C 73.0°F22.8°C - 5.3 mph SW8.5 kmh SW 7.2 mph11.6 kmh 29.98 in1015.2 mb 0.00 in0.0 mm 0.00 in0.0 mm 0.18 in4.6 mm
05:39 PM 46.7°F8.2°C 72.9°F22.7°C - 6.0 mph SW9.7 kmh SW 7.5 mph12.1 kmh 29.99 in1015.6 mb 0.00 in0.0 mm 0.00 in0.0 mm 0.18 in4.6 mm
05:44 PM 46.8°F8.2°C 73.1°F22.8°C - 6.9 mph SW11.1 kmh SW 8.5 mph13.7 kmh 29.99 in1015.6 mb 0.00 in0.0 mm 0.00 in0.0 mm 0.18 in4.6 mm
05:49 PM 47.0°F8.3°C 73.3°F22.9°C - 6.3 mph SW10.1 kmh SW 8.1 mph13.0 kmh 29.99 in1015.6 mb 0.00 in0.0 mm 0.00 in0.0 mm 0.18 in4.6 mm
05:54 PM 47.2°F8.4°C 73.5°F23.1°C - 6.1 mph WSW9.8 kmh WSW 7.9 mph12.7 kmh 29.99 in1015.6 mb 0.00 in0.0 mm 0.00 in0.0 mm 0.18 in4.6 mm
05:59 PM 47.3°F8.5°C 73.5°F23.1°C - 5.1 mph SW8.2 kmh SW 6.8 mph10.9 kmh 30.00 in1015.9 mb 0.00 in0.0 mm 0.00 in0.0 mm 0.18 in4.6 mm
06:04 PM 47.3°F8.5°C 73.7°F23.2°C - 5.7 mph SW9.2 kmh SW 6.8 mph10.9 kmh 30.00 in1015.9 mb 0.00 in0.0 mm 0.00 in0.0 mm 0.18 in4.6 mm
06:09 PM 47.3°F8.5°C 73.7°F23.2°C - 6.0 mph WSW9.7 kmh WSW 7.7 mph12.4 kmh 30.00 in1015.9 mb 0.00 in0.0 mm 0.00 in0.0 mm 0.18 in4.6 mm
06:14 PM 47.4°F8.6°C 73.8°F23.2°C - 6.3 mph WSW10.1 kmh WSW 7.7 mph12.4 kmh 30.00 in1015.9 mb 0.00 in0.0 mm 0.00 in0.0 mm 0.18 in4.6 mm
06:19 PM 47.5°F8.6°C 73.9°F23.3°C - 5.5 mph WSW8.9 kmh WSW 7.1 mph11.4 kmh 30.00 in1015.9 mb 0.00 in0.0 mm 0.00 in0.0 mm 0.18 in4.6 mm
06:24 PM 47.5°F8.6°C 73.8°F23.2°C - 7.4 mph WSW11.9 kmh WSW 8.7 mph14.0 kmh 30.00 in1015.9 mb 0.00 in0.0 mm 0.00 in0.0 mm 0.18 in4.6 mm
06:29 PM 47.3°F8.5°C 73.5°F23.1°C - 6.8 mph WSW10.9 kmh WSW 8.6 mph13.8 kmh 30.01 in1016.3 mb 0.00 in0.0 mm 0.00 in0.0 mm 0.18 in4.6 mm
06:34 PM 47.2°F8.4°C 73.4°F23.0°C - 7.5 mph WSW12.1 kmh WSW 9.4 mph15.1 kmh 30.01 in1016.3 mb 0.00 in0.0 mm 0.00 in0.0 mm 0.18 in4.6 mm
06:39 PM 47.2°F8.4°C 73.4°F23.0°C - 7.4 mph WSW11.9 kmh WSW 9.1 mph14.6 kmh 30.01 in1016.3 mb 0.00 in0.0 mm 0.00 in0.0 mm 0.18 in4.6 mm
06:44 PM 47.2°F8.4°C 73.4°F23.0°C - 7.9 mph WSW12.7 kmh WSW 9.9 mph15.9 kmh 30.01 in1016.3 mb 0.00 in0.0 mm 0.00 in0.0 mm 0.18 in4.6 mm
06:49 PM 47.1°F8.4°C 73.4°F23.0°C - 9.1 mph WSW14.6 kmh WSW 10.8 mph17.4 kmh 30.02 in1016.6 mb 0.00 in0.0 mm 0.00 in0.0 mm 0.18 in4.6 mm
06:54 PM 47.0°F8.3°C 73.2°F22.9°C - 7.5 mph WSW12.1 kmh WSW 9.6 mph15.4 kmh 30.02 in1016.6 mb 0.00 in0.0 mm 0.00 in0.0 mm 0.18 in4.6 mm
06:59 PM 46.8°F8.2°C 73.0°F22.8°C - 7.3 mph WSW11.7 kmh WSW 9.1 mph14.6 kmh 30.02 in1016.6 mb 0.00 in0.0 mm 0.00 in0.0 mm 0.18 in4.6 mm
07:04 PM 47.0°F8.3°C 73.3°F22.9°C - 8.2 mph WSW13.2 kmh WSW 10.3 mph16.6 kmh 30.02 in1016.6 mb 0.00 in0.0 mm 0.00 in0.0 mm 0.18 in4.6 mm
07:09 PM 47.2°F8.4°C 73.5°F23.1°C - 8.7 mph WNW14.0 kmh WNW 10.1 mph16.3 kmh 30.02 in1016.6 mb 0.00 in0.0 mm 0.00 in0.0 mm 0.18 in4.6 mm
07:14 PM 47.9°F8.8°C 74.3°F23.5°C - 14.2 mph N22.9 kmh N 17.1 mph27.5 kmh 30.02 in1016.6 mb 0.00 in0.0 mm 0.00 in0.0 mm 0.18 in4.6 mm
07:19 PM 48.3°F9.1°C 74.8°F23.8°C - 12.0 mph N19.3 kmh N 13.7 mph22.0 kmh 30.03 in1016.9 mb 0.00 in0.0 mm 0.00 in0.0 mm 0.18 in4.6 mm
07:24 PM 48.3°F9.1°C 74.7°F23.7°C - 8.7 mph NNW14.0 kmh NNW 9.9 mph15.9 kmh 30.03 in1016.9 mb 0.00 in0.0 mm 0.00 in0.0 mm 0.18 in4.6 mm
07:29 PM 48.3°F9.1°C 74.8°F23.8°C - 9.3 mph N15.0 kmh N 10.6 mph17.1 kmh 30.03 in1016.9 mb 0.00 in0.0 mm 0.00 in0.0 mm 0.18 in4.6 mm
07:34 PM 48.6°F9.2°C 75.1°F23.9°C - 10.1 mph N16.3 kmh N 11.6 mph18.7 kmh 30.03 in1016.9 mb 0.00 in0.0 mm 0.00 in0.0 mm 0.18 in4.6 mm
07:39 PM 48.6°F9.2°C 75.1°F23.9°C - 8.4 mph N13.5 kmh N 9.4 mph15.1 kmh 30.03 in1016.9 mb 0.00 in0.0 mm 0.00 in0.0 mm 0.18 in4.6 mm
07:44 PM 48.5°F9.2°C 75.0°F23.9°C - 5.6 mph N9.0 kmh N 6.6 mph10.6 kmh 30.03 in1016.9 mb 0.00 in0.0 mm 0.00 in0.0 mm 0.18 in4.6 mm
07:49 PM 48.6°F9.2°C 75.1°F23.9°C - 6.1 mph N9.8 kmh N 7.2 mph11.6 kmh 30.03 in1016.9 mb 0.00 in0.0 mm 0.00 in0.0 mm 0.18 in4.6 mm
07:54 PM 48.5°F9.2°C 74.9°F23.8°C - 4.3 mph NW6.9 kmh NW 5.4 mph8.7 kmh 30.03 in1016.9 mb 0.00 in0.0 mm 0.00 in0.0 mm 0.18 in4.6 mm
07:59 PM 48.5°F9.2°C 75.0°F23.9°C - 4.1 mph WSW6.6 kmh WSW 4.6 mph7.4 kmh 30.03 in1016.9 mb 0.00 in0.0 mm 0.00 in0.0 mm 0.18 in4.6 mm
08:04 PM 48.5°F9.2°C 75.0°F23.9°C - 4.5 mph WSW7.2 kmh WSW 5.3 mph8.5 kmh 30.03 in1016.9 mb 0.00 in0.0 mm 0.00 in0.0 mm 0.18 in4.6 mm
08:09 PM 48.2°F9.0°C 74.6°F23.7°C - 4.9 mph SW7.9 kmh SW 5.6 mph9.0 kmh 30.03 in1016.9 mb 0.00 in0.0 mm 0.00 in0.0 mm 0.18 in4.6 mm
08:14 PM 47.7°F8.7°C 74.1°F23.4°C - 5.3 mph SW8.5 kmh SW 6.6 mph10.6 kmh 30.03 in1016.9 mb 0.00 in0.0 mm 0.00 in0.0 mm 0.18 in4.6 mm
08:19 PM 47.3°F8.5°C 73.7°F23.2°C - 2.5 mph W4.0 kmh W 4.0 mph6.4 kmh 30.04 in1017.3 mb 0.00 in0.0 mm 0.00 in0.0 mm 0.18 in4.6 mm
08:24 PM 47.3°F8.5°C 73.5°F23.1°C - 1.1 mph NNE1.8 kmh NNE 1.7 mph2.7 kmh 30.04 in1017.3 mb 0.00 in0.0 mm 0.00 in0.0 mm 0.18 in4.6 mm
08:29 PM 47.5°F8.6°C 73.9°F23.3°C - 3.8 mph WSW6.1 kmh WSW 4.3 mph6.9 kmh 30.04 in1017.3 mb 0.00 in0.0 mm 0.00 in0.0 mm 0.18 in4.6 mm
08:34 PM 47.5°F8.6°C 73.8°F23.2°C - 4.3 mph WSW6.9 kmh WSW 5.0 mph8.0 kmh 30.04 in1017.3 mb 0.00 in0.0 mm 0.00 in0.0 mm 0.18 in4.6 mm
08:39 PM 47.7°F8.7°C 74.1°F23.4°C - 4.1 mph WSW6.6 kmh WSW 4.5 mph7.2 kmh 30.04 in1017.3 mb 0.00 in0.0 mm 0.00 in0.0 mm 0.18 in4.6 mm
08:44 PM 47.7°F8.7°C 74.1°F23.4°C - 4.6 mph SW7.4 kmh SW 5.5 mph8.9 kmh 30.04 in1017.3 mb 0.00 in0.0 mm 0.00 in0.0 mm 0.18 in4.6 mm
08:49 PM 47.7°F8.7°C 74.0°F23.3°C - 5.3 mph SW8.5 kmh SW 6.1 mph9.8 kmh 30.04 in1017.3 mb 0.00 in0.0 mm 0.00 in0.0 mm 0.18 in4.6 mm
08:54 PM 47.3°F8.5°C 73.7°F23.2°C - 5.7 mph SSW9.2 kmh SSW 6.2 mph10.0 kmh 30.05 in1017.6 mb 0.00 in0.0 mm 0.00 in0.0 mm 0.18 in4.6 mm
08:59 PM 47.2°F8.4°C 73.4°F23.0°C - 5.5 mph SW8.9 kmh SW 6.1 mph9.8 kmh 30.05 in1017.6 mb 0.00 in0.0 mm 0.00 in0.0 mm 0.18 in4.6 mm
09:04 PM 47.3°F8.5°C 73.7°F23.2°C - 5.7 mph SW9.2 kmh SW 6.3 mph10.1 kmh 30.05 in1017.6 mb 0.00 in0.0 mm 0.00 in0.0 mm 0.18 in4.6 mm
09:09 PM 47.3°F8.5°C 73.7°F23.2°C - 5.1 mph SW8.2 kmh SW 5.7 mph9.2 kmh 30.05 in1017.6 mb 0.00 in0.0 mm 0.00 in0.0 mm 0.18 in4.6 mm
09:14 PM 47.3°F8.5°C 73.7°F23.2°C - 5.5 mph SW8.9 kmh SW 7.2 mph11.6 kmh 30.05 in1017.6 mb 0.00 in0.0 mm 0.00 in0.0 mm 0.18 in4.6 mm
09:19 PM 47.3°F8.5°C 73.7°F23.2°C - 4.8 mph WSW7.7 kmh WSW 5.6 mph9.0 kmh 30.05 in1017.6 mb 0.00 in0.0 mm 0.00 in0.0 mm 0.18 in4.6 mm
09:24 PM 47.3°F8.5°C 73.7°F23.2°C - 5.1 mph SW8.2 kmh SW 5.7 mph9.2 kmh 30.05 in1017.6 mb 0.00 in0.0 mm 0.00 in0.0 mm 0.18 in4.6 mm
09:29 PM 47.2°F8.4°C 73.4°F23.0°C - 5.4 mph SW8.7 kmh SW 6.1 mph9.8 kmh 30.05 in1017.6 mb 0.00 in0.0 mm 0.00 in0.0 mm 0.18 in4.6 mm
09:34 PM 47.1°F8.4°C 73.4°F23.0°C - 6.1 mph WSW9.8 kmh WSW 6.9 mph11.1 kmh 30.05 in1017.6 mb 0.00 in0.0 mm 0.00 in0.0 mm 0.18 in4.6 mm
09:39 PM 46.8°F8.2°C 73.0°F22.8°C - 5.1 mph WSW8.2 kmh WSW 6.4 mph10.3 kmh 30.05 in1017.6 mb 0.00 in0.0 mm 0.00 in0.0 mm 0.18 in4.6 mm
09:44 PM 46.7°F8.2°C 73.0°F22.8°C - 5.6 mph WSW9.0 kmh WSW 7.2 mph11.6 kmh 30.05 in1017.6 mb 0.00 in0.0 mm 0.00 in0.0 mm 0.19 in4.8 mm
09:49 PM 46.5°F8.1°C 72.8°F22.7°C - 5.5 mph WSW8.9 kmh WSW 6.8 mph10.9 kmh 30.06 in1017.9 mb 0.00 in0.0 mm 0.00 in0.0 mm 0.19 in4.8 mm
09:54 PM 46.3°F7.9°C 72.5°F22.5°C - 5.9 mph WSW9.5 kmh WSW 7.5 mph12.1 kmh 30.06 in1017.9 mb 0.00 in0.0 mm 0.00 in0.0 mm 0.19 in4.8 mm
09:59 PM 46.3°F7.9°C 72.4°F22.4°C - 6.0 mph WSW9.7 kmh WSW 7.7 mph12.4 kmh 30.06 in1017.9 mb 0.00 in0.0 mm 0.00 in0.0 mm 0.19 in4.8 mm
10:04 PM 46.5°F8.1°C 72.8°F22.7°C - 7.9 mph W12.7 kmh W 10.0 mph16.1 kmh 30.06 in1017.9 mb 0.00 in0.0 mm 0.00 in0.0 mm 0.19 in4.8 mm
10:09 PM 46.9°F8.3°C 73.1°F22.8°C - 9.1 mph WNW14.6 kmh WNW 11.2 mph18.0 kmh 30.07 in1018.3 mb 0.00 in0.0 mm 0.00 in0.0 mm 0.19 in4.8 mm
10:14 PM 47.4°F8.6°C 73.8°F23.2°C - 9.2 mph W14.8 kmh W 10.7 mph17.2 kmh 30.07 in1018.3 mb 0.00 in0.0 mm 0.00 in0.0 mm 0.19 in4.8 mm
10:19 PM 47.7°F8.7°C 74.1°F23.4°C - 7.7 mph WNW12.4 kmh WNW 9.6 mph15.4 kmh 30.07 in1018.3 mb 0.00 in0.0 mm 0.00 in0.0 mm 0.19 in4.8 mm
10:24 PM 48.2°F9.0°C 74.7°F23.7°C - 8.3 mph WNW13.4 kmh WNW 9.9 mph15.9 kmh 30.07 in1018.3 mb 0.00 in0.0 mm 0.00 in0.0 mm 0.19 in4.8 mm
10:29 PM 48.5°F9.2°C 75.0°F23.9°C - 7.2 mph WNW11.6 kmh WNW 8.8 mph14.2 kmh 30.07 in1018.3 mb 0.00 in0.0 mm 0.00 in0.0 mm 0.19 in4.8 mm
10:34 PM 48.6°F9.2°C 75.1°F23.9°C - 8.4 mph WNW13.5 kmh WNW 10.3 mph16.6 kmh 30.07 in1018.3 mb 0.00 in0.0 mm 0.00 in0.0 mm 0.19 in4.8 mm
10:39 PM 48.7°F9.3°C 75.1°F23.9°C - 7.5 mph WNW12.1 kmh WNW 9.1 mph14.6 kmh 30.08 in1018.6 mb 0.00 in0.0 mm 0.00 in0.0 mm 0.19 in4.8 mm
10:44 PM 48.5°F9.2°C 75.0°F23.9°C - 7.4 mph WNW11.9 kmh WNW 8.7 mph14.0 kmh 30.08 in1018.6 mb 0.00 in0.0 mm 0.00 in0.0 mm 0.19 in4.8 mm
10:49 PM 48.2°F9.0°C 74.7°F23.7°C - 7.5 mph WNW12.1 kmh WNW 10.4 mph16.7 kmh 30.08 in1018.6 mb 0.00 in0.0 mm 0.00 in0.0 mm 0.19 in4.8 mm
10:54 PM 48.2°F9.0°C 74.7°F23.7°C - 7.9 mph W12.7 kmh W 9.4 mph15.1 kmh 30.08 in1018.6 mb 0.00 in0.0 mm 0.00 in0.0 mm 0.19 in4.8 mm
10:59 PM 48.5°F9.2°C 75.0°F23.9°C - 7.3 mph WNW11.7 kmh WNW 8.6 mph13.8 kmh 30.08 in1018.6 mb 0.00 in0.0 mm 0.00 in0.0 mm 0.19 in4.8 mm
11:04 PM 48.6°F9.2°C 75.1°F23.9°C - 7.0 mph WNW11.3 kmh WNW 8.4 mph13.5 kmh 30.08 in1018.6 mb 0.00 in0.0 mm 0.00 in0.0 mm 0.19 in4.8 mm
11:09 PM 48.6°F9.2°C 75.1°F23.9°C - 6.8 mph W10.9 kmh W 7.9 mph12.7 kmh 30.08 in1018.6 mb 0.00 in0.0 mm 0.00 in0.0 mm 0.19 in4.8 mm
11:14 PM 48.3°F9.1°C 74.8°F23.8°C - 8.8 mph WNW14.2 kmh WNW 10.8 mph17.4 kmh 30.09 in1019.0 mb 0.00 in0.0 mm 0.00 in0.0 mm 0.19 in4.8 mm
11:19 PM 48.5°F9.2°C 75.0°F23.9°C - 13.5 mph WNW21.7 kmh WNW 16.3 mph26.2 kmh 30.09 in1019.0 mb 0.00 in0.0 mm 0.00 in0.0 mm 0.19 in4.8 mm
11:24 PM 48.8°F9.3°C 75.3°F24.1°C - 14.5 mph NW23.3 kmh NW 17.5 mph28.2 kmh 30.09 in1019.0 mb 0.00 in0.0 mm 0.00 in0.0 mm 0.19 in4.8 mm
11:29 PM 49.4°F9.7°C 75.9°F24.4°C - 10.9 mph NNW17.5 kmh NNW 13.1 mph21.1 kmh 30.09 in1019.0 mb 0.00 in0.0 mm 0.00 in0.0 mm 0.19 in4.8 mm
11:34 PM 49.3°F9.6°C 75.8°F24.3°C - 10.0 mph NW16.1 kmh NW 11.6 mph18.7 kmh 30.09 in1019.0 mb 0.00 in0.0 mm 0.00 in0.0 mm 0.19 in4.8 mm
11:39 PM 49.2°F9.6°C 75.8°F24.3°C - 9.3 mph NW15.0 kmh NW 10.4 mph16.7 kmh 30.10 in1019.3 mb 0.00 in0.0 mm 0.00 in0.0 mm 0.19 in4.8 mm
11:44 PM 49.7°F9.8°C 76.4°F24.7°C - 14.0 mph NW22.5 kmh NW 16.5 mph26.6 kmh 30.10 in1019.3 mb 0.00 in0.0 mm 0.00 in0.0 mm 0.19 in4.8 mm
11:49 PM 50.0°F10.0°C 76.7°F24.8°C - 19.6 mph NW31.5 kmh NW 21.7 mph34.9 kmh 30.10 in1019.3 mb 0.00 in0.0 mm 0.00 in0.0 mm 0.19 in4.8 mm
11:54 PM 50.1°F10.1°C 76.8°F24.9°C - 18.7 mph NW30.1 kmh NW 21.6 mph34.8 kmh 30.10 in1019.3 mb 0.00 in0.0 mm 0.00 in0.0 mm 0.19 in4.8 mm